createdAt,value
2022-10-07T00:00:52.943Z,8.65
2022-10-07T00:03:22.293Z,8.67
2022-10-07T00:06:10.866Z,8.66
2022-10-07T00:08:39.085Z,8.52
2022-10-07T00:11:11.925Z,8.59
2022-10-07T00:13:40.619Z,8.55
2022-10-07T00:16:13.347Z,8.61
2022-10-07T00:18:41.388Z,8.46
2022-10-07T00:21:11.285Z,8.48
2022-10-07T00:23:39.166Z,8.42
2022-10-07T00:26:07.762Z,8.34
2022-10-07T00:28:36.274Z,8.41
2022-10-07T00:31:12.984Z,8.46
2022-10-07T00:33:40.704Z,8.46
2022-10-07T00:36:14.848Z,8.53
2022-10-07T00:38:41.726Z,8.58
2022-10-07T00:41:16.214Z,8.61
2022-10-07T00:43:42.831Z,8.47
2022-10-07T00:46:33.676Z,8.49
2022-10-07T00:49:04.105Z,8.66
2022-10-07T00:51:33.345Z,8.67
2022-10-07T00:54:02.488Z,8.63
2022-10-07T00:56:29.912Z,8.61
2022-10-07T00:58:59.003Z,8.64
2022-10-07T01:01:26.616Z,8.56
2022-10-07T01:03:54.347Z,8.64
2022-10-07T01:06:21.053Z,8.63
2022-10-07T01:08:52.863Z,8.57
2022-10-07T01:12:04.057Z,8.49
2022-10-07T01:15:01.231Z,8.41
2022-10-07T01:17:52.524Z,8.10
2022-10-07T01:20:19.107Z,8.07
2022-10-07T01:23:18.970Z,8.08
2022-10-07T01:26:21.031Z,7.93
2022-10-07T01:29:17.962Z,7.92
2022-10-07T01:32:01.577Z,7.91
2022-10-07T01:34:28.591Z,7.95
2022-10-07T01:36:59.551Z,7.93
2022-10-07T01:39:32.488Z,7.99
2022-10-07T01:41:59.732Z,7.99
2022-10-07T01:44:30.386Z,8.02
2022-10-07T01:46:58.668Z,8.00
2022-10-07T01:49:25.615Z,8.04
2022-10-07T01:52:04.944Z,8.07
2022-10-07T01:54:47.363Z,8.09
2022-10-07T01:57:20.018Z,8.10
2022-10-07T02:00:05.843Z,7.98
2022-10-07T02:02:53.122Z,7.87
2022-10-07T02:05:32.814Z,7.76
2022-10-07T02:08:39.643Z,7.77
2022-10-07T02:11:06.277Z,7.74
2022-10-07T02:13:47.300Z,7.71
2022-10-07T02:16:25.620Z,7.68
2022-10-07T02:18:53.705Z,7.71
2022-10-07T02:21:25.666Z,7.68
2022-10-07T02:23:54.765Z,7.65
2022-10-07T02:26:23.116Z,7.67
2022-10-07T02:28:52.925Z,7.74
2022-10-07T02:31:24.280Z,7.71
2022-10-07T02:33:54.083Z,7.69
2022-10-07T02:36:28.936Z,7.72
2022-10-07T02:38:56.297Z,7.72
2022-10-07T02:41:33.150Z,7.74
2022-10-07T02:44:22.071Z,7.71
2022-10-07T02:46:54.272Z,7.62
2022-10-07T02:49:23.537Z,7.43
2022-10-07T02:51:59.625Z,7.48
2022-10-07T02:54:32.761Z,7.44
2022-10-07T02:57:01.265Z,7.35
2022-10-07T02:59:29.482Z,7.31
2022-10-07T03:01:59.027Z,7.13
2022-10-07T03:04:25.964Z,7.19
2022-10-07T03:06:52.894Z,7.16
2022-10-07T03:09:19.567Z,7.12
2022-10-07T03:11:46.400Z,7.12
2022-10-07T03:14:13.012Z,6.98
2022-10-07T03:16:39.856Z,7.01
2022-10-07T03:19:06.498Z,7.09
2022-10-07T03:21:34.025Z,6.97
2022-10-07T03:24:04.877Z,6.84
2022-10-07T03:26:33.463Z,6.97
2022-10-07T03:29:01.297Z,7.02
2022-10-07T03:31:28.979Z,7.06
2022-10-07T03:33:57.066Z,7.10
2022-10-07T03:36:24.840Z,7.13
2022-10-07T03:38:52.047Z,7.07
2022-10-07T03:41:19.856Z,7.05
2022-10-07T03:43:46.660Z,7.03
2022-10-07T03:46:13.532Z,6.99
2022-10-07T03:48:40.196Z,6.90
2022-10-07T03:51:06.798Z,6.86
2022-10-07T03:53:33.405Z,6.66
2022-10-07T03:56:00.177Z,6.64
2022-10-07T03:58:27.140Z,6.70
2022-10-07T04:01:10.609Z,6.71
2022-10-07T04:03:37.232Z,6.71
2022-10-07T04:06:04.135Z,6.76
2022-10-07T04:08:32.994Z,6.80
2022-10-07T04:11:01.200Z,6.73
2022-10-07T04:13:28.616Z,6.71
2022-10-07T04:15:55.797Z,6.70
2022-10-07T04:18:22.782Z,6.80
2022-10-07T04:20:49.472Z,6.85
2022-10-07T04:23:17.123Z,6.92
2022-10-07T04:25:46.286Z,6.97
2022-10-07T04:28:19.168Z,6.97
2022-10-07T04:30:51.091Z,7.06
2022-10-07T04:33:22.203Z,7.15
2022-10-07T04:35:50.168Z,7.15
2022-10-07T04:38:18.316Z,7.17
2022-10-07T04:40:49.155Z,7.27
2022-10-07T04:43:21.309Z,7.13
2022-10-07T04:45:49.646Z,7.20
2022-10-07T04:48:21.293Z,6.95
2022-10-07T04:50:48.020Z,7.18
2022-10-07T04:53:16.782Z,7.23
2022-10-07T04:55:48.195Z,7.30
2022-10-07T04:58:16.231Z,7.31
2022-10-07T05:00:45.331Z,7.25
2022-10-07T05:03:14.056Z,7.37
2022-10-07T05:05:42.944Z,7.39
2022-10-07T05:08:10.556Z,7.33
2022-10-07T05:10:41.001Z,7.50
2022-10-07T05:13:12.415Z,7.61
2022-10-07T05:15:54.481Z,7.81
2022-10-07T05:18:22.789Z,8.47
2022-10-07T05:20:49.817Z,9.21
2022-10-07T05:23:18.677Z,10.33
2022-10-07T05:25:45.522Z,11.25
2022-10-07T05:28:13.907Z,12.00
2022-10-07T05:30:41.930Z,12.37
2022-10-07T05:33:10.083Z,12.57
2022-10-07T05:35:36.785Z,13.10
2022-10-07T05:38:03.502Z,12.86
2022-10-07T05:40:30.216Z,12.35
2022-10-07T05:42:57.521Z,12.37
2022-10-07T05:45:25.788Z,12.15
2022-10-07T05:47:53.034Z,12.05
2022-10-07T05:50:19.784Z,12.32
2022-10-07T05:52:46.519Z,12.46
2022-10-07T05:55:13.142Z,12.67
2022-10-07T05:57:40.040Z,12.95
2022-10-07T06:00:07.381Z,13.05
2022-10-07T06:02:34.378Z,13.28
2022-10-07T06:05:01.268Z,13.25
2022-10-07T06:07:29.684Z,13.16
2022-10-07T06:10:14.944Z,13.15
2022-10-07T06:13:00.435Z,13.40
2022-10-07T06:15:27.040Z,13.57
2022-10-07T06:17:53.688Z,13.94
2022-10-07T06:20:20.343Z,14.24
2022-10-07T06:22:47.208Z,14.17
2022-10-07T06:25:13.964Z,14.34
2022-10-07T06:27:40.696Z,14.45
2022-10-07T06:30:08.336Z,14.35
2022-10-07T06:32:34.975Z,13.99
2022-10-07T06:35:01.663Z,13.89
2022-10-07T06:37:32.178Z,13.88
2022-10-07T06:39:59.827Z,13.94
2022-10-07T06:42:26.653Z,14.05
2022-10-07T06:44:56.075Z,14.26
2022-10-07T06:47:22.759Z,14.21
2022-10-07T06:49:49.401Z,14.23
2022-10-07T06:52:16.176Z,14.41
2022-10-07T06:54:42.945Z,14.28
2022-10-07T06:57:26.701Z,14.54
2022-10-07T06:59:56.646Z,14.87
2022-10-07T07:02:25.650Z,15.04
2022-10-07T07:04:57.235Z,15.48
2022-10-07T07:07:24.915Z,15.68
2022-10-07T07:09:52.329Z,16.00
2022-10-07T07:12:18.987Z,16.47
2022-10-07T07:14:45.859Z,16.48
2022-10-07T07:17:12.557Z,17.15
2022-10-07T07:19:39.710Z,17.51
2022-10-07T07:22:07.087Z,17.23
2022-10-07T07:24:33.728Z,17.07
2022-10-07T07:27:00.751Z,16.83
2022-10-07T07:29:27.549Z,16.48
2022-10-07T07:31:54.901Z,16.17
2022-10-07T07:34:21.609Z,16.15
2022-10-07T07:36:51.940Z,15.77
2022-10-07T07:39:19.980Z,15.68
2022-10-07T07:41:47.930Z,15.61
2022-10-07T07:44:18.059Z,15.60
2022-10-07T07:46:49.194Z,15.64
2022-10-07T07:49:16.775Z,15.34
2022-10-07T07:51:43.659Z,15.31
2022-10-07T07:54:12.113Z,15.45
2022-10-07T07:56:39.733Z,15.08
2022-10-07T07:59:08.301Z,15.04
2022-10-07T08:01:35.776Z,15.30
2022-10-07T08:04:04.241Z,15.70
2022-10-07T08:06:31.610Z,15.70
2022-10-07T08:08:59.228Z,16.04
2022-10-07T08:11:27.075Z,16.11
2022-10-07T08:13:56.435Z,16.17
2022-10-07T08:16:25.964Z,16.42
2022-10-07T08:18:54.297Z,16.43
2022-10-07T08:21:22.955Z,16.69
2022-10-07T08:23:54.798Z,16.53
2022-10-07T08:26:21.695Z,16.75
2022-10-07T08:28:49.224Z,17.07
2022-10-07T08:31:18.976Z,16.93
2022-10-07T08:33:48.149Z,17.04
2022-10-07T08:36:20.438Z,16.93
2022-10-07T08:38:50.443Z,16.94
2022-10-07T08:41:26.257Z,16.97
2022-10-07T08:43:52.799Z,17.04
2022-10-07T08:46:25.067Z,17.18
2022-10-07T08:49:15.741Z,17.19
2022-10-07T08:51:48.699Z,17.40
2022-10-07T08:54:19.732Z,17.18
2022-10-07T08:56:49.085Z,16.66
2022-10-07T08:59:33.041Z,16.66
2022-10-07T09:02:18.519Z,16.66
2022-10-07T09:05:00.328Z,16.72
2022-10-07T09:07:36.989Z,16.72
2022-10-07T09:10:09.783Z,17.27
2022-10-07T09:12:44.401Z,17.28
2022-10-07T09:15:23.659Z,17.36
2022-10-07T09:18:02.529Z,17.48
2022-10-07T09:20:36.759Z,17.66
2022-10-07T09:23:05.704Z,17.45
2022-10-07T09:25:34.981Z,17.82
2022-10-07T09:28:01.639Z,17.75
2022-10-07T09:30:29.801Z,17.50
2022-10-07T09:32:58.514Z,17.85
2022-10-07T09:35:27.294Z,17.54
2022-10-07T09:37:58.552Z,17.92
2022-10-07T09:40:57.949Z,18.01
2022-10-07T09:43:26.198Z,18.35
2022-10-07T09:45:53.423Z,18.20
2022-10-07T09:48:33.479Z,18.12
2022-10-07T09:51:13.837Z,18.22
2022-10-07T09:53:58.860Z,18.08
2022-10-07T09:56:54.855Z,18.37
2022-10-07T09:59:27.451Z,18.66
2022-10-07T10:02:00.225Z,18.12
2022-10-07T10:04:37.955Z,18.47
2022-10-07T10:07:19.568Z,18.80
2022-10-07T10:09:57.464Z,18.72
2022-10-07T10:12:25.763Z,18.73
2022-10-07T10:14:54.805Z,18.91
2022-10-07T10:17:26.977Z,19.12
2022-10-07T10:19:53.915Z,19.06
2022-10-07T10:22:30.572Z,18.88
2022-10-07T10:25:16.320Z,18.86
2022-10-07T10:28:01.754Z,18.50
2022-10-07T10:30:30.387Z,18.45
2022-10-07T10:33:40.595Z,19.00
2022-10-07T10:36:17.781Z,19.24
2022-10-07T10:38:47.138Z,19.46
2022-10-07T10:41:35.605Z,18.99
2022-10-07T10:44:22.591Z,18.86
2022-10-07T10:47:04.180Z,18.79
2022-10-07T10:49:36.843Z,19.18
2022-10-07T10:52:18.160Z,19.25
2022-10-07T10:54:56.853Z,19.25
2022-10-07T10:57:46.179Z,19.31
2022-10-07T11:00:23.646Z,19.36
2022-10-07T11:02:59.714Z,19.38
2022-10-07T11:05:38.518Z,19.62
2022-10-07T11:08:37.068Z,19.40
2022-10-07T11:11:09.001Z,19.33
2022-10-07T11:14:00.187Z,19.72
2022-10-07T11:16:47.064Z,19.48
2022-10-07T11:19:35.805Z,19.47
2022-10-07T11:22:03.459Z,19.66
2022-10-07T11:24:40.733Z,19.78
2022-10-07T11:27:25.888Z,19.66
2022-10-07T11:30:19.340Z,19.63
2022-10-07T11:33:04.845Z,19.84
2022-10-07T11:35:37.678Z,19.66
2022-10-07T11:38:10.062Z,19.87
2022-10-07T11:40:51.485Z,19.79
2022-10-07T11:43:29.381Z,19.91
2022-10-07T11:46:01.657Z,20.38
2022-10-07T11:48:42.903Z,20.07
2022-10-07T11:51:18.210Z,20.04
2022-10-07T11:53:45.236Z,20.16
2022-10-07T11:56:44.379Z,20.02
2022-10-07T11:59:29.324Z,19.79
2022-10-07T12:01:56.271Z,19.98
2022-10-07T12:04:35.476Z,19.98
2022-10-07T12:07:34.983Z,19.97
2022-10-07T12:10:04.986Z,19.96
2022-10-07T12:12:47.677Z,20.06
2022-10-07T12:15:26.706Z,19.85
2022-10-07T12:17:57.208Z,19.85
2022-10-07T12:20:52.749Z,19.81
2022-10-07T12:23:29.570Z,19.68
2022-10-07T12:26:00.550Z,19.82
2022-10-07T12:28:36.642Z,20.03
2022-10-07T12:31:26.370Z,20.14
2022-10-07T12:33:58.567Z,20.18
2022-10-07T12:36:27.851Z,19.90
2022-10-07T12:38:57.545Z,19.76
2022-10-07T12:41:40.158Z,19.78
2022-10-07T12:44:25.709Z,19.82
2022-10-07T12:47:19.235Z,19.70
2022-10-07T12:50:02.554Z,19.18
2022-10-07T12:52:56.829Z,19.34
2022-10-07T12:55:31.789Z,19.36
2022-10-07T12:58:17.934Z,19.40
2022-10-07T13:01:11.917Z,19.46
2022-10-07T13:03:53.733Z,19.37
2022-10-07T13:06:40.989Z,19.66
2022-10-07T13:09:19.812Z,19.58
2022-10-07T13:12:10.090Z,19.61
2022-10-07T13:14:46.043Z,19.22
2022-10-07T13:17:25.021Z,19.40
2022-10-07T13:20:15.669Z,19.32
2022-10-07T13:22:50.173Z,18.98
2022-10-07T13:25:20.494Z,19.30
2022-10-07T13:27:54.788Z,19.21
2022-10-07T13:30:42.047Z,19.10
2022-10-07T13:33:28.371Z,19.04
2022-10-07T13:36:18.333Z,19.18
2022-10-07T13:38:47.330Z,19.11
2022-10-07T13:41:24.517Z,19.06
2022-10-07T13:43:54.912Z,19.51
2022-10-07T13:46:25.232Z,19.52
2022-10-07T13:48:55.156Z,19.52
2022-10-07T13:51:30.687Z,19.63
2022-10-07T13:53:59.886Z,19.66
2022-10-07T13:56:41.088Z,19.49
2022-10-07T13:59:16.020Z,19.39
2022-10-07T14:01:43.273Z,19.15
2022-10-07T14:04:22.058Z,19.31
2022-10-07T14:06:56.066Z,19.04
2022-10-07T14:09:31.997Z,19.27
2022-10-07T14:12:07.236Z,19.16
2022-10-07T14:14:38.539Z,19.26
2022-10-07T14:17:21.113Z,19.45
2022-10-07T14:19:59.172Z,19.64
2022-10-07T14:22:39.116Z,19.68
2022-10-07T14:25:16.897Z,19.19
2022-10-07T14:27:47.221Z,18.89
2022-10-07T14:30:55.819Z,18.63
2022-10-07T14:34:08.976Z,18.48
2022-10-07T14:36:36.238Z,18.23
2022-10-07T14:39:23.374Z,17.96
2022-10-07T14:41:50.034Z,17.86
2022-10-07T14:44:18.308Z,17.80
2022-10-07T14:46:44.948Z,17.74
2022-10-07T14:49:11.893Z,17.57
2022-10-07T14:51:38.869Z,17.45
2022-10-07T14:54:07.438Z,17.55
2022-10-07T14:56:36.669Z,17.49
2022-10-07T14:59:03.378Z,17.39
2022-10-07T15:01:30.115Z,17.42
2022-10-07T15:03:57.987Z,17.24
2022-10-07T15:06:25.258Z,17.30
2022-10-07T15:08:51.972Z,17.28
2022-10-07T15:11:21.160Z,17.37
2022-10-07T15:13:50.140Z,17.20
2022-10-07T15:16:20.224Z,17.11
2022-10-07T15:18:52.180Z,16.98
2022-10-07T15:21:20.484Z,16.87
2022-10-07T15:23:54.228Z,16.87
2022-10-07T15:26:24.508Z,16.84
2022-10-07T15:28:56.805Z,16.69
2022-10-07T15:31:26.257Z,16.62
2022-10-07T15:33:57.382Z,16.65
2022-10-07T15:36:26.162Z,16.63
2022-10-07T15:38:53.454Z,16.50
2022-10-07T15:41:46.242Z,16.40
2022-10-07T15:44:22.110Z,16.33
2022-10-07T15:46:52.667Z,16.21
2022-10-07T15:49:19.494Z,16.27
2022-10-07T15:51:46.942Z,16.21
2022-10-07T15:54:13.817Z,16.14
2022-10-07T15:56:41.608Z,16.09
2022-10-07T15:59:08.687Z,16.04
2022-10-07T16:01:35.821Z,15.99
2022-10-07T16:04:03.781Z,15.95
2022-10-07T16:06:33.793Z,15.89
2022-10-07T16:09:01.107Z,15.87
2022-10-07T16:11:29.175Z,15.88
2022-10-07T16:13:56.156Z,15.74
2022-10-07T16:16:25.526Z,15.71
2022-10-07T16:18:54.139Z,15.73
2022-10-07T16:21:23.873Z,15.58
2022-10-07T16:23:55.027Z,15.62
2022-10-07T16:26:24.586Z,15.58
2022-10-07T16:29:10.858Z,15.41
2022-10-07T16:31:42.614Z,15.37
2022-10-07T16:34:11.431Z,15.20
2022-10-07T16:36:42.234Z,15.15
2022-10-07T16:39:11.856Z,15.11
2022-10-07T16:41:41.908Z,14.85
2022-10-07T16:44:09.452Z,14.78
2022-10-07T16:46:37.030Z,14.67
2022-10-07T16:49:08.599Z,14.48
2022-10-07T16:51:37.255Z,14.49
2022-10-07T16:54:13.023Z,14.46
2022-10-07T16:56:44.152Z,14.48
2022-10-07T16:59:13.336Z,14.52
2022-10-07T17:01:40.414Z,14.61
2022-10-07T17:04:08.213Z,14.60
2022-10-07T17:06:35.148Z,14.67
2022-10-07T17:09:04.648Z,14.59
2022-10-07T17:11:36.631Z,14.67
2022-10-07T17:14:17.878Z,14.64
2022-10-07T17:16:49.958Z,14.55
2022-10-07T17:19:20.450Z,14.55
2022-10-07T17:21:49.196Z,14.53
2022-10-07T17:24:17.367Z,14.57
2022-10-07T17:26:45.456Z,14.55
2022-10-07T17:29:14.748Z,14.42
2022-10-07T17:31:43.544Z,14.43
2022-10-07T17:34:11.923Z,14.45
2022-10-07T17:36:39.404Z,14.46
2022-10-07T17:39:06.550Z,14.43
2022-10-07T17:41:38.404Z,14.38
2022-10-07T17:44:11.080Z,14.12
2022-10-07T17:46:39.528Z,13.94
2022-10-07T17:49:08.599Z,13.93
2022-10-07T17:51:37.435Z,13.97
2022-10-07T17:54:06.045Z,13.99
2022-10-07T17:56:34.332Z,13.81
2022-10-07T17:59:01.421Z,13.92
2022-10-07T18:01:31.114Z,13.83
2022-10-07T18:04:00.249Z,13.77
2022-10-07T18:06:31.261Z,13.59
2022-10-07T18:09:03.205Z,13.40
2022-10-07T18:11:49.256Z,13.29
2022-10-07T18:14:34.594Z,13.21
2022-10-07T18:17:01.352Z,13.30
2022-10-07T18:19:29.651Z,13.30
2022-10-07T18:21:56.786Z,13.29
2022-10-07T18:24:27.640Z,13.22
2022-10-07T18:26:59.473Z,13.19
2022-10-07T18:29:31.647Z,13.03
2022-10-07T18:32:00.650Z,12.92
2022-10-07T18:34:27.443Z,12.89
2022-10-07T18:36:56.933Z,12.67
2022-10-07T18:39:25.274Z,12.73
2022-10-07T18:41:51.968Z,12.63
2022-10-07T18:44:19.866Z,12.36
2022-10-07T18:46:46.442Z,12.47
2022-10-07T18:49:13.942Z,12.58
2022-10-07T18:51:41.052Z,12.71
2022-10-07T18:54:07.815Z,12.70
2022-10-07T18:56:38.418Z,12.77
2022-10-07T18:59:07.814Z,12.69
2022-10-07T19:01:34.592Z,12.53
2022-10-07T19:04:02.562Z,12.48
2022-10-07T19:06:31.431Z,12.52
2022-10-07T19:09:00.393Z,12.55
2022-10-07T19:11:29.412Z,12.64
2022-10-07T19:13:58.993Z,12.69
2022-10-07T19:16:34.522Z,12.74
2022-10-07T19:19:04.244Z,12.72
2022-10-07T19:21:32.207Z,12.67
2022-10-07T19:24:01.831Z,12.57
2022-10-07T19:26:35.271Z,12.51
2022-10-07T19:29:02.890Z,12.29
2022-10-07T19:31:32.345Z,12.10
2022-10-07T19:34:02.325Z,11.70
2022-10-07T19:36:35.174Z,11.49
2022-10-07T19:39:02.306Z,11.39
2022-10-07T19:41:31.474Z,11.42
2022-10-07T19:43:58.599Z,11.28
2022-10-07T19:46:28.317Z,11.12
2022-10-07T19:48:58.311Z,11.02
2022-10-07T19:51:27.327Z,11.07
2022-10-07T19:54:00.001Z,10.98
2022-10-07T19:56:29.150Z,10.99
2022-10-07T19:58:57.841Z,11.14
2022-10-07T20:01:27.196Z,11.25
2022-10-07T20:03:59.269Z,11.32
2022-10-07T20:06:26.736Z,11.39
2022-10-07T20:08:54.146Z,11.53
2022-10-07T20:11:20.887Z,11.58
2022-10-07T20:13:48.253Z,11.59
2022-10-07T20:16:18.168Z,11.61
2022-10-07T20:18:47.255Z,11.61
2022-10-07T20:21:20.672Z,11.64
2022-10-07T20:23:48.568Z,11.58
2022-10-07T20:26:19.143Z,11.55
2022-10-07T20:28:52.467Z,11.54
2022-10-07T20:31:22.299Z,11.38
2022-10-07T20:33:51.947Z,11.37
2022-10-07T20:36:21.611Z,11.51
2022-10-07T20:39:31.815Z,11.48
2022-10-07T20:42:17.374Z,11.34
2022-10-07T20:44:44.189Z,11.23
2022-10-07T20:47:10.965Z,11.23
2022-10-07T20:49:41.451Z,11.07
2022-10-07T20:52:17.408Z,10.97
2022-10-07T20:54:45.509Z,10.98
2022-10-07T20:57:13.973Z,10.99
2022-10-07T20:59:40.694Z,10.91
2022-10-07T21:02:09.653Z,10.88
2022-10-07T21:04:37.439Z,10.78
2022-10-07T21:07:04.454Z,10.88
2022-10-07T21:09:36.232Z,10.84
2022-10-07T21:12:05.172Z,11.04
2022-10-07T21:14:31.847Z,11.04
2022-10-07T21:16:59.028Z,11.07
2022-10-07T21:19:25.914Z,11.03
2022-10-07T21:21:52.919Z,11.12
2022-10-07T21:24:19.788Z,11.02
2022-10-07T21:26:47.056Z,11.16
2022-10-07T21:29:14.368Z,11.21
2022-10-07T21:31:42.370Z,11.13
2022-10-07T21:34:10.175Z,11.41
2022-10-07T21:36:40.818Z,11.34
2022-10-07T21:39:07.561Z,11.25
2022-10-07T21:41:35.653Z,11.24
2022-10-07T21:44:04.566Z,11.28
2022-10-07T21:46:32.707Z,11.27
2022-10-07T21:48:59.827Z,11.29
2022-10-07T21:51:27.441Z,11.36
2022-10-07T21:53:55.602Z,11.29
2022-10-07T21:56:22.252Z,11.33
2022-10-07T21:58:53.359Z,11.36
2022-10-07T22:01:22.825Z,11.34
2022-10-07T22:03:54.352Z,11.20
2022-10-07T22:06:21.656Z,11.25
2022-10-07T22:08:49.569Z,11.17
2022-10-07T22:11:19.780Z,11.06
2022-10-07T22:13:55.039Z,10.97
2022-10-07T22:16:22.975Z,10.79
2022-10-07T22:18:52.005Z,10.50
2022-10-07T22:21:21.286Z,10.20
2022-10-07T22:23:50.591Z,9.95
2022-10-07T22:26:19.178Z,9.87
2022-10-07T22:28:48.564Z,9.79
2022-10-07T22:31:16.247Z,9.46
2022-10-07T22:33:44.400Z,9.52
2022-10-07T22:36:13.369Z,9.33
2022-10-07T22:38:43.501Z,9.38
2022-10-07T22:41:14.054Z,9.30
2022-10-07T22:43:46.836Z,9.37
2022-10-07T22:46:16.780Z,9.27
2022-10-07T22:48:44.382Z,9.23
2022-10-07T22:51:13.304Z,9.21
2022-10-07T22:53:46.567Z,9.14
2022-10-07T22:56:16.671Z,9.22
2022-10-07T22:58:51.053Z,9.01
2022-10-07T23:01:18.149Z,9.02
2022-10-07T23:03:45.785Z,8.88
2022-10-07T23:06:18.030Z,8.90
2022-10-07T23:08:45.983Z,9.04
2022-10-07T23:11:16.126Z,8.94
2022-10-07T23:13:42.872Z,8.94
2022-10-07T23:16:12.554Z,8.87
2022-10-07T23:18:42.655Z,8.83
2022-10-07T23:21:18.275Z,8.92
2022-10-07T23:23:48.003Z,8.76
2022-10-07T23:26:18.926Z,8.81
2022-10-07T23:28:50.404Z,8.77
2022-10-07T23:31:19.000Z,8.71
2022-10-07T23:33:47.841Z,8.76
2022-10-07T23:36:16.109Z,8.72
2022-10-07T23:38:46.007Z,8.80
2022-10-07T23:41:14.705Z,8.86
2022-10-07T23:43:41.680Z,8.87
2022-10-07T23:46:13.284Z,8.95
2022-10-07T23:48:41.179Z,8.84
2022-10-07T23:51:10.247Z,8.77
2022-10-07T23:53:36.883Z,8.81
2022-10-07T23:56:03.696Z,8.76
2022-10-07T23:58:31.429Z,8.79
